createdAt,value
2018-02-02T04:32:34.804Z,1.00
2018-02-02T04:35:23.848Z,1.10
2018-02-02T04:37:57.542Z,1.10
2018-02-02T04:40:33.670Z,1.10
2018-02-02T04:43:07.340Z,1.20
2018-02-02T04:45:42.044Z,1.20
2018-02-02T04:48:17.418Z,1.30
2018-02-02T04:50:51.266Z,1.30
2018-02-02T04:53:25.118Z,1.30
2018-02-02T04:55:59.216Z,1.40
2018-02-02T04:58:35.692Z,1.50
2018-02-02T05:01:09.488Z,1.40
2018-02-02T05:03:43.933Z,1.40
2018-02-02T05:06:17.692Z,1.40
2018-02-02T05:08:51.470Z,1.40
2018-02-02T05:11:25.565Z,1.40
2018-02-02T05:13:59.499Z,1.40
2018-02-02T05:16:33.432Z,1.30
2018-02-02T05:19:07.160Z,1.30
2018-02-02T05:21:40.971Z,1.30
2018-02-02T05:24:15.492Z,1.40
2018-02-02T05:26:50.076Z,1.50
2018-02-02T05:29:24.732Z,1.50
2018-02-02T05:31:58.643Z,1.40
2018-02-02T05:34:32.355Z,1.50
2018-02-02T05:37:06.036Z,1.50
2018-02-02T05:39:39.892Z,1.50
2018-02-02T05:42:14.477Z,1.40
2018-02-02T05:44:48.984Z,1.40
2018-02-02T05:47:22.747Z,1.40
2018-02-02T05:49:56.596Z,1.40
2018-02-02T05:52:30.325Z,1.40
2018-02-02T05:55:04.179Z,1.30
2018-02-02T05:57:38.260Z,1.30
2018-02-02T06:00:16.439Z,1.40
2018-02-02T06:02:50.341Z,1.40
2018-02-02T06:05:24.192Z,1.40
2018-02-02T06:07:57.975Z,1.40
2018-02-02T06:10:33.585Z,1.30
2018-02-02T06:13:07.327Z,1.30
2018-02-02T06:15:41.330Z,1.40
2018-02-02T06:18:15.154Z,1.30
2018-02-02T06:20:49.969Z,1.30
2018-02-02T06:23:23.619Z,1.30
2018-02-02T06:25:58.196Z,1.30
2018-02-02T06:28:32.587Z,1.30
2018-02-02T06:31:06.429Z,1.30
2018-02-02T06:33:40.191Z,1.30
2018-02-02T06:36:14.960Z,1.30
2018-02-02T06:38:48.776Z,1.30
2018-02-02T06:41:23.590Z,1.30
2018-02-02T06:43:57.388Z,1.30
2018-02-02T06:46:31.921Z,1.40
2018-02-02T06:49:05.643Z,1.40
2018-02-02T06:51:40.355Z,1.40
2018-02-02T06:54:14.151Z,1.40
2018-02-02T06:56:48.055Z,1.40
2018-02-02T06:59:22.054Z,1.40
2018-02-02T07:01:56.310Z,1.50
2018-02-02T07:04:30.089Z,1.50
2018-02-02T07:07:03.842Z,1.50
2018-02-02T07:09:37.532Z,1.40
2018-02-02T07:12:12.179Z,1.40
2018-02-02T07:14:46.872Z,1.40
2018-02-02T07:17:20.619Z,1.40
2018-02-02T07:19:57.597Z,1.40
2018-02-02T07:22:33.711Z,1.40
2018-02-02T07:25:07.590Z,1.30
2018-02-02T07:27:42.479Z,1.30
2018-02-02T07:30:16.288Z,1.30
2018-02-02T07:32:50.066Z,1.40
2018-02-02T07:35:23.863Z,1.50
2018-02-02T07:37:58.500Z,1.60
2018-02-02T07:40:33.120Z,1.60
2018-02-02T07:43:08.392Z,1.60
2018-02-02T07:45:42.276Z,1.60
2018-02-02T07:48:16.171Z,1.60
2018-02-02T07:50:49.760Z,1.60
2018-02-02T07:53:23.628Z,1.70
2018-02-02T07:55:57.200Z,1.80
2018-02-02T07:58:30.961Z,1.80
2018-02-02T08:01:11.277Z,1.90
2018-02-02T08:03:46.072Z,1.80
2018-02-02T08:06:20.488Z,1.80
2018-02-02T08:08:54.391Z,1.90
2018-02-02T08:11:27.967Z,1.90
2018-02-02T08:14:02.618Z,2.00
2018-02-02T08:16:36.520Z,2.00
2018-02-02T08:19:10.950Z,2.10
2018-02-02T08:21:44.723Z,2.10
2018-02-02T08:24:18.579Z,2.00
2018-02-02T08:26:52.436Z,2.00
2018-02-02T08:29:27.466Z,2.10
2018-02-02T08:32:01.320Z,2.30
2018-02-02T08:34:35.843Z,3.90
2018-02-02T08:37:09.542Z,3.90
2018-02-02T08:39:44.083Z,5.30
2018-02-02T08:42:18.947Z,5.90
2018-02-02T08:44:52.747Z,5.90
2018-02-02T08:47:27.326Z,5.90
2018-02-02T08:50:01.048Z,5.80
2018-02-02T08:52:34.825Z,5.80
2018-02-02T08:55:09.453Z,6.70
2018-02-02T08:57:43.154Z,6.60
2018-02-02T09:00:16.987Z,6.10
2018-02-02T09:02:51.800Z,6.50
2018-02-02T09:05:26.304Z,6.70
2018-02-02T09:08:00.047Z,6.70
2018-02-02T09:10:34.628Z,6.50
2018-02-02T09:13:08.505Z,6.40
2018-02-02T09:15:42.321Z,6.10
2018-02-02T09:18:16.211Z,5.90
2018-02-02T09:20:49.942Z,5.50
2018-02-02T09:23:23.705Z,5.20
2018-02-02T09:25:57.485Z,5.00
2018-02-02T09:28:31.614Z,5.20
2018-02-02T09:31:05.290Z,4.90
2018-02-02T09:33:39.143Z,5.10
2018-02-02T09:36:12.963Z,4.80
2018-02-02T09:38:46.671Z,4.70
2018-02-02T09:41:21.532Z,4.40
2018-02-02T09:43:55.654Z,4.40
2018-02-02T09:46:29.487Z,4.30
2018-02-02T09:49:04.254Z,4.30
2018-02-02T09:51:38.935Z,4.30
2018-02-02T09:54:12.675Z,4.30
2018-02-02T09:56:47.142Z,4.30
2018-02-02T09:59:20.875Z,4.30
2018-02-02T10:01:55.494Z,4.50
2018-02-02T10:04:29.239Z,4.50
2018-02-02T10:07:02.977Z,4.50
2018-02-02T10:09:36.832Z,4.30
2018-02-02T10:12:11.386Z,4.30
2018-02-02T10:14:45.526Z,4.30
2018-02-02T10:17:20.140Z,4.50
2018-02-02T10:19:54.797Z,4.50
2018-02-02T10:22:28.511Z,4.50
2018-02-02T10:25:02.468Z,4.50
2018-02-02T10:27:36.297Z,4.50
2018-02-02T10:30:10.152Z,4.60
2018-02-02T10:32:44.626Z,5.00
2018-02-02T10:35:18.467Z,5.00
2018-02-02T10:37:52.938Z,5.30
2018-02-02T10:40:26.993Z,5.30
2018-02-02T10:43:01.468Z,5.30
2018-02-02T10:45:35.320Z,5.30
2018-02-02T10:48:09.072Z,5.20
2018-02-02T10:50:43.608Z,4.70
2018-02-02T10:53:17.463Z,4.70
2018-02-02T10:55:51.249Z,4.70
2018-02-02T10:58:25.118Z,4.90
2018-02-02T11:01:04.600Z,5.10
2018-02-02T11:03:44.460Z,5.30
2018-02-02T11:06:18.136Z,5.50
2018-02-02T11:08:51.757Z,5.50
2018-02-02T11:11:27.186Z,5.80
2018-02-02T11:14:00.915Z,5.80
2018-02-02T11:16:35.040Z,6.00
2018-02-02T11:19:08.880Z,5.80
2018-02-02T11:21:43.455Z,5.40
2018-02-02T11:24:17.243Z,5.40
2018-02-02T11:26:50.963Z,5.30
2018-02-02T11:29:24.735Z,5.20
2018-02-02T11:31:58.603Z,5.00
2018-02-02T11:34:33.945Z,5.20
2018-02-02T11:37:08.747Z,5.30
2018-02-02T11:39:42.866Z,5.30
2018-02-02T11:42:16.674Z,5.30
2018-02-02T11:44:50.545Z,5.20
2018-02-02T11:47:24.338Z,5.10
2018-02-02T11:49:58.131Z,5.20
2018-02-02T11:52:31.812Z,5.50
2018-02-02T11:55:06.487Z,5.50
2018-02-02T11:57:41.363Z,5.50
2018-02-02T12:00:16.038Z,5.70
2018-02-02T12:02:49.992Z,5.70
2018-02-02T12:05:24.521Z,5.50
2018-02-02T12:07:58.199Z,5.40
2018-02-02T12:10:31.853Z,5.70
2018-02-02T12:13:06.393Z,5.70
2018-02-02T12:15:40.207Z,5.70
2018-02-02T12:18:14.739Z,5.70
2018-02-02T12:20:49.284Z,5.70
2018-02-02T12:23:24.483Z,5.80
2018-02-02T12:29:09.239Z,5.90
2018-02-02T12:31:48.564Z,5.90
2018-02-02T12:34:24.324Z,5.90
2018-02-02T12:36:58.134Z,5.80
2018-02-02T12:39:32.933Z,5.60
2018-02-02T12:42:06.684Z,5.60
2018-02-02T12:44:40.431Z,5.60
2018-02-02T12:47:14.182Z,5.60
2018-02-02T12:50:00.803Z,5.40
2018-02-02T12:52:34.556Z,5.40
2018-02-02T12:55:09.383Z,5.50
2018-02-02T12:57:43.615Z,5.50
2018-02-02T13:00:17.336Z,5.50
2018-02-02T13:02:51.025Z,5.70
2018-02-02T13:05:25.662Z,5.90
2018-02-02T13:07:59.409Z,5.90
2018-02-02T13:10:33.973Z,5.90
2018-02-02T13:13:07.790Z,5.80
2018-02-02T13:15:41.659Z,5.90
2018-02-02T13:18:15.392Z,6.00
2018-02-02T13:20:49.212Z,6.20
2018-02-02T13:23:22.941Z,6.20
2018-02-02T13:25:56.580Z,6.10
2018-02-02T13:28:30.310Z,6.30
2018-02-02T13:31:04.124Z,6.40
2018-02-02T13:33:37.831Z,6.40
2018-02-02T13:36:11.635Z,6.30
2018-02-02T13:38:47.851Z,6.00
2018-02-02T13:41:22.791Z,6.00
2018-02-02T13:43:56.685Z,6.00
2018-02-02T13:46:30.305Z,5.80
2018-02-02T13:49:04.835Z,5.80
2018-02-02T13:51:38.616Z,5.80
2018-02-02T13:54:12.672Z,5.70
2018-02-02T13:56:48.003Z,5.60
2018-02-02T13:59:21.652Z,5.60
2018-02-02T14:01:55.624Z,5.60
2018-02-02T14:04:30.155Z,5.70
2018-02-02T14:07:03.886Z,5.70
2018-02-02T14:09:37.567Z,5.70
2018-02-02T14:12:12.182Z,5.70
2018-02-02T14:14:46.768Z,5.80
2018-02-02T14:17:20.703Z,5.80
2018-02-02T14:19:55.247Z,5.90
2018-02-02T14:22:29.005Z,5.80
2018-02-02T14:25:02.744Z,6.00
2018-02-02T14:27:37.404Z,6.10
2018-02-02T14:30:11.385Z,6.10
2018-02-02T14:32:46.357Z,6.20
2018-02-02T14:35:19.969Z,6.20
2018-02-02T14:37:53.790Z,6.20
2018-02-02T14:40:27.598Z,6.00
2018-02-02T14:43:03.043Z,6.00
2018-02-02T14:45:36.796Z,6.00
2018-02-02T14:48:10.560Z,6.00
2018-02-02T14:50:44.372Z,5.90
2018-02-02T14:53:18.228Z,5.80
2018-02-02T14:55:51.996Z,5.80
2018-02-02T14:58:26.015Z,5.80
2018-02-02T15:00:59.805Z,5.90
2018-02-02T15:03:34.227Z,5.80
2018-02-02T15:06:07.873Z,5.80
2018-02-02T15:08:41.675Z,5.70
2018-02-02T15:11:15.483Z,5.70
2018-02-02T15:13:52.215Z,5.80
2018-02-02T15:16:26.921Z,5.70
2018-02-02T15:19:00.591Z,5.70
2018-02-02T15:21:34.462Z,5.50
2018-02-02T15:24:08.256Z,5.50
2018-02-02T15:26:42.240Z,5.50
2018-02-02T15:29:16.811Z,5.60
2018-02-02T15:31:52.545Z,5.60
2018-02-02T15:34:26.452Z,5.60
2018-02-02T15:37:00.141Z,5.60
2018-02-02T15:39:34.049Z,5.60
2018-02-02T15:42:07.821Z,5.60
2018-02-02T15:44:41.591Z,5.50
2018-02-02T15:47:16.671Z,5.50
2018-02-02T15:49:50.402Z,5.50
2018-02-02T15:52:24.147Z,5.50
2018-02-02T15:54:57.908Z,5.40
2018-02-02T15:57:32.448Z,5.20
2018-02-02T16:00:06.135Z,5.20
2018-02-02T16:02:40.295Z,5.20
2018-02-02T16:05:15.012Z,5.30
2018-02-02T16:07:48.661Z,5.20
2018-02-02T16:10:22.452Z,5.30
2018-02-02T16:12:56.185Z,5.30
2018-02-02T16:15:30.101Z,5.30
2018-02-02T16:18:04.519Z,5.20
2018-02-02T16:20:38.252Z,5.20
2018-02-02T16:23:12.000Z,5.20
2018-02-02T16:25:45.743Z,5.30
2018-02-02T16:28:19.568Z,5.20
2018-02-02T16:30:53.318Z,5.20
2018-02-02T16:33:27.126Z,5.10
2018-02-02T16:36:01.595Z,5.20
2018-02-02T16:38:35.263Z,5.20
2018-02-02T16:41:09.071Z,5.20
2018-02-02T16:43:42.653Z,5.20
2018-02-02T16:46:16.560Z,5.20
2018-02-02T16:48:51.656Z,5.20
2018-02-02T16:51:25.574Z,5.20
2018-02-02T16:53:59.273Z,5.20
2018-02-02T16:56:33.838Z,5.10
2018-02-02T16:59:07.608Z,5.10
2018-02-02T17:01:41.316Z,5.00
2018-02-02T17:04:15.080Z,5.10
2018-02-02T17:06:49.824Z,5.10
2018-02-02T17:09:23.591Z,5.10
2018-02-02T17:11:58.180Z,5.00
2018-02-02T17:14:31.868Z,5.00
2018-02-02T17:17:05.845Z,5.00
2018-02-02T17:19:40.392Z,4.90
2018-02-02T17:22:15.005Z,4.90
2018-02-02T17:24:49.029Z,4.90
2018-02-02T17:27:22.876Z,4.90
2018-02-02T17:29:56.632Z,4.90
2018-02-02T17:32:30.467Z,4.90
2018-02-02T17:35:04.375Z,4.80
2018-02-02T17:37:39.687Z,4.70
2018-02-02T17:40:13.592Z,4.70
2018-02-02T17:42:47.337Z,4.80
2018-02-02T17:45:21.173Z,4.80
2018-02-02T17:47:54.876Z,4.90
2018-02-02T17:50:28.726Z,4.80
2018-02-02T17:53:02.531Z,4.80
2018-02-02T17:55:36.665Z,4.80
2018-02-02T17:58:10.565Z,4.90
2018-02-02T18:00:45.371Z,4.90
2018-02-02T18:03:19.192Z,5.00
2018-02-02T18:05:53.099Z,5.00
2018-02-02T18:08:26.955Z,4.90
2018-02-02T18:11:01.523Z,4.80
2018-02-02T18:13:36.139Z,4.70
2018-02-02T18:16:10.017Z,4.70
2018-02-02T18:18:43.792Z,4.70
2018-02-02T18:21:17.580Z,4.70
2018-02-02T18:23:51.402Z,4.70
2018-02-02T18:26:25.992Z,4.70
2018-02-02T18:28:59.928Z,4.70
2018-02-02T18:31:33.806Z,4.70
2018-02-02T18:34:07.659Z,4.70
2018-02-02T18:36:41.489Z,4.70
2018-02-02T18:39:15.165Z,4.80
2018-02-02T18:41:48.999Z,4.80
2018-02-02T18:44:22.905Z,4.90
2018-02-02T18:46:56.763Z,4.80
2018-02-02T18:49:31.088Z,4.80
2018-02-02T18:52:04.875Z,4.80
2018-02-02T18:54:38.596Z,4.80
2018-02-02T18:57:12.468Z,4.80
2018-02-02T18:59:46.300Z,4.80
2018-02-02T19:02:20.123Z,4.80
2018-02-02T19:04:53.816Z,4.80
2018-02-02T19:07:27.568Z,4.70
2018-02-02T19:10:01.391Z,4.70
2018-02-02T19:12:35.947Z,4.60
2018-02-02T19:15:10.768Z,4.70
2018-02-02T19:17:44.557Z,4.70
2018-02-02T19:20:19.094Z,4.60
2018-02-02T19:22:52.840Z,4.60
2018-02-02T19:25:28.554Z,4.60
2018-02-02T19:28:02.347Z,4.60
2018-02-02T19:30:36.988Z,4.50
2018-02-02T19:33:10.795Z,4.50
2018-02-02T19:35:44.868Z,4.60
2018-02-02T19:38:18.714Z,4.60
2018-02-02T19:40:52.462Z,4.50
2018-02-02T19:43:27.069Z,4.50
2018-02-02T19:46:00.865Z,4.50
2018-02-02T19:48:34.716Z,4.60
2018-02-02T19:51:08.505Z,4.60
2018-02-02T19:53:42.385Z,4.60
2018-02-02T19:56:16.950Z,4.50
2018-02-02T19:58:51.823Z,4.50
2018-02-02T20:01:25.688Z,4.50
2018-02-02T20:03:59.469Z,4.60
2018-02-02T20:06:34.276Z,4.50
2018-02-02T20:09:08.947Z,4.60
2018-02-02T20:11:42.952Z,4.50
2018-02-02T20:14:16.740Z,4.50
2018-02-02T20:16:50.619Z,4.50
2018-02-02T20:19:24.476Z,4.50
2018-02-02T20:21:58.293Z,4.50
2018-02-02T20:24:32.134Z,4.40
2018-02-02T20:27:06.714Z,4.30
2018-02-02T20:29:41.550Z,4.30
2018-02-02T20:32:15.272Z,4.30
2018-02-02T20:34:49.855Z,4.30
2018-02-02T20:37:23.884Z,4.30
2018-02-02T20:39:57.665Z,4.30
2018-02-02T20:42:31.407Z,4.40
2018-02-02T20:45:05.517Z,4.40
2018-02-02T20:47:39.225Z,4.40
2018-02-02T20:50:13.963Z,4.40
2018-02-02T20:52:47.749Z,4.40
2018-02-02T20:55:21.591Z,4.40
2018-02-02T20:57:56.128Z,4.50
2018-02-02T21:00:31.010Z,4.50
2018-02-02T21:03:05.599Z,4.50
2018-02-02T21:05:39.375Z,4.50
2018-02-02T21:08:13.299Z,4.50
2018-02-02T21:10:47.149Z,4.50
2018-02-02T21:13:20.975Z,4.40
2018-02-02T21:15:54.727Z,4.40
2018-02-02T21:18:28.608Z,4.40
2018-02-02T21:21:03.389Z,4.50
2018-02-02T21:23:37.211Z,4.50
2018-02-02T21:26:11.164Z,4.30
2018-02-02T21:28:44.987Z,4.30
2018-02-02T21:31:18.810Z,4.30
2018-02-02T21:33:53.372Z,4.20
2018-02-02T21:36:27.464Z,4.20
2018-02-02T21:39:02.054Z,4.30
2018-02-02T21:41:35.784Z,4.20
2018-02-02T21:44:10.436Z,4.30
2018-02-02T21:46:44.590Z,4.30
2018-02-02T21:49:19.130Z,4.30
2018-02-02T21:51:52.863Z,4.30
2018-02-02T21:54:27.335Z,4.20
2018-02-02T21:57:01.108Z,4.20
2018-02-02T21:59:34.905Z,4.20
